createdAt,value
2022-07-25T00:00:00.442Z,8.93
2022-07-25T00:02:29.211Z,8.77
2022-07-25T00:04:57.840Z,8.00
2022-07-25T00:07:26.928Z,5.95
2022-07-25T00:09:55.725Z,7.43
2022-07-25T00:12:24.310Z,4.82
2022-07-25T00:14:53.929Z,7.03
2022-07-25T00:17:22.141Z,5.57
2022-07-25T00:19:50.847Z,7.68
2022-07-25T00:22:19.070Z,5.75
2022-07-25T00:24:47.261Z,6.70
2022-07-25T00:27:15.869Z,5.78
2022-07-25T00:29:44.294Z,6.50
2022-07-25T00:32:15.032Z,6.55
2022-07-25T00:34:43.834Z,7.90
2022-07-25T00:37:12.215Z,7.45
2022-07-25T00:39:40.509Z,5.88
2022-07-25T00:42:09.523Z,9.30
2022-07-25T00:44:38.518Z,8.05
2022-07-25T00:47:08.131Z,6.95
2022-07-25T00:49:38.167Z,7.60
2022-07-25T00:52:07.161Z,8.48
2022-07-25T00:54:35.798Z,6.50
2022-07-25T00:57:04.300Z,7.60
2022-07-25T00:59:32.590Z,8.38
2022-07-25T01:02:03.880Z,5.35
2022-07-25T01:04:32.834Z,6.88
2022-07-25T01:07:03.015Z,7.60
2022-07-25T01:09:31.293Z,5.25
2022-07-25T01:11:59.741Z,5.65
2022-07-25T01:14:28.140Z,7.88
2022-07-25T01:16:56.389Z,7.18
2022-07-25T01:19:25.623Z,7.55
2022-07-25T01:21:56.283Z,8.13
2022-07-25T01:24:24.541Z,10.20
2022-07-25T01:26:53.209Z,6.78
2022-07-25T01:29:21.473Z,6.85
2022-07-25T01:31:49.786Z,9.52
2022-07-25T01:34:18.365Z,10.48
2022-07-25T01:36:46.575Z,7.57
2022-07-25T01:39:16.715Z,9.43
2022-07-25T01:41:45.364Z,7.78
2022-07-25T01:44:13.553Z,7.03
2022-07-25T01:46:41.802Z,6.22
2022-07-25T01:49:10.294Z,6.95
2022-07-25T01:51:38.811Z,6.75
2022-07-25T01:54:09.058Z,7.88
2022-07-25T01:56:44.517Z,6.72
2022-07-25T01:59:15.325Z,6.53
2022-07-25T02:01:43.745Z,6.13
2022-07-25T02:04:12.348Z,8.25
2022-07-25T02:06:41.511Z,8.50
2022-07-25T02:09:10.713Z,7.68
2022-07-25T02:11:40.280Z,9.43
2022-07-25T02:14:09.244Z,8.65
2022-07-25T02:16:38.062Z,9.40
2022-07-25T02:19:06.714Z,8.68
2022-07-25T02:21:35.198Z,8.93
2022-07-25T02:24:04.675Z,9.82
2022-07-25T02:26:33.009Z,6.55
2022-07-25T02:29:02.641Z,9.32
2022-07-25T02:31:31.111Z,7.78
2022-07-25T02:33:59.630Z,9.57
2022-07-25T02:36:28.015Z,6.93
2022-07-25T02:38:56.876Z,7.00
2022-07-25T02:41:25.319Z,7.45
2022-07-25T02:43:53.530Z,8.70
2022-07-25T02:46:23.295Z,6.13
2022-07-25T02:48:51.690Z,7.00
2022-07-25T02:51:19.936Z,7.47
2022-07-25T02:53:57.311Z,7.38
2022-07-25T02:56:29.732Z,7.63
2022-07-25T02:58:58.921Z,8.30
2022-07-25T03:01:28.855Z,9.60
2022-07-25T03:03:57.221Z,8.52
2022-07-25T03:06:25.761Z,8.07
2022-07-25T03:08:54.032Z,8.15
2022-07-25T03:11:22.544Z,7.85
2022-07-25T03:13:51.179Z,9.25
2022-07-25T03:16:19.398Z,7.63
2022-07-25T03:18:49.029Z,8.05
2022-07-25T03:21:17.416Z,7.47
2022-07-25T03:23:50.433Z,10.77
2022-07-25T03:26:20.807Z,7.65
2022-07-25T03:28:48.982Z,8.68
2022-07-25T03:31:17.198Z,10.88
2022-07-25T03:33:46.133Z,10.23
2022-07-25T03:36:15.774Z,8.82
2022-07-25T03:38:44.087Z,7.88
2022-07-25T03:41:13.522Z,9.35
2022-07-25T03:43:41.826Z,7.47
2022-07-25T03:46:10.130Z,8.52
2022-07-25T03:48:38.597Z,9.25
2022-07-25T03:51:07.530Z,8.13
2022-07-25T03:53:57.472Z,7.82
2022-07-25T03:56:26.761Z,10.95
2022-07-25T03:58:55.065Z,10.85
2022-07-25T04:01:23.407Z,10.40
2022-07-25T04:03:53.320Z,10.13
2022-07-25T04:06:21.619Z,9.75
2022-07-25T04:08:52.117Z,8.00
2022-07-25T04:11:20.851Z,10.27
2022-07-25T04:13:49.896Z,10.70
2022-07-25T04:16:22.716Z,10.40
2022-07-25T04:18:51.916Z,9.05
2022-07-25T04:21:20.743Z,8.90
2022-07-25T04:23:49.508Z,9.98
2022-07-25T04:26:19.748Z,10.23
2022-07-25T04:28:48.188Z,9.65
2022-07-25T04:31:16.655Z,9.88
2022-07-25T04:33:45.481Z,8.98
2022-07-25T04:36:13.866Z,8.70
2022-07-25T04:38:42.077Z,9.15
2022-07-25T04:41:10.584Z,9.57
2022-07-25T04:43:43.601Z,9.18
2022-07-25T04:46:19.694Z,8.98
2022-07-25T04:48:48.230Z,8.55
2022-07-25T04:51:16.796Z,10.15
2022-07-25T04:53:45.386Z,9.20
2022-07-25T04:56:13.700Z,8.70
2022-07-25T04:58:43.554Z,8.88
2022-07-25T05:01:11.937Z,9.52
2022-07-25T05:03:40.328Z,10.32
2022-07-25T05:06:09.625Z,9.57
2022-07-25T05:08:37.918Z,8.73
2022-07-25T05:11:06.878Z,9.00
2022-07-25T05:13:35.325Z,8.50
2022-07-25T05:16:05.264Z,8.82
2022-07-25T05:18:35.327Z,8.55
2022-07-25T05:21:04.158Z,8.18
2022-07-25T05:23:32.664Z,9.65
2022-07-25T05:26:00.931Z,7.95
2022-07-25T05:28:29.298Z,8.65
2022-07-25T05:30:57.589Z,9.23
2022-07-25T05:33:27.373Z,7.90
2022-07-25T05:35:55.722Z,8.77
2022-07-25T05:38:23.957Z,8.82
2022-07-25T05:40:52.395Z,8.13
2022-07-25T05:43:21.119Z,6.60
2022-07-25T05:45:49.454Z,7.68
2022-07-25T05:48:17.685Z,6.65
2022-07-25T05:50:48.099Z,6.90
2022-07-25T05:53:16.704Z,8.40
2022-07-25T05:55:44.973Z,7.60
2022-07-25T05:58:13.572Z,7.55
2022-07-25T06:00:41.795Z,8.02
2022-07-25T06:03:09.983Z,7.10
2022-07-25T06:05:38.678Z,7.30
2022-07-25T06:08:08.358Z,6.85
2022-07-25T06:10:36.553Z,5.80
2022-07-25T06:13:05.779Z,6.40
2022-07-25T06:15:35.988Z,6.65
2022-07-25T06:18:04.299Z,6.10
2022-07-25T06:20:32.677Z,6.57
2022-07-25T06:23:00.901Z,5.70
2022-07-25T06:25:30.598Z,5.47
2022-07-25T06:28:01.064Z,4.90
2022-07-25T06:30:29.653Z,4.90
2022-07-25T06:32:57.897Z,5.45
2022-07-25T06:35:26.373Z,5.53
2022-07-25T06:37:54.598Z,4.97
2022-07-25T06:40:22.857Z,6.07
2022-07-25T06:42:52.746Z,5.30
2022-07-25T06:45:21.371Z,5.10
2022-07-25T06:47:49.661Z,5.20
2022-07-25T06:50:21.144Z,3.88
2022-07-25T06:52:49.686Z,4.97
2022-07-25T06:55:18.145Z,4.47
2022-07-25T06:57:46.705Z,5.15
2022-07-25T07:00:17.354Z,4.53
2022-07-25T07:02:50.407Z,4.47
2022-07-25T07:05:18.903Z,4.68
2022-07-25T07:07:48.328Z,3.58
2022-07-25T07:10:18.032Z,5.13
2022-07-25T07:12:47.093Z,3.45
2022-07-25T07:15:17.208Z,3.63
2022-07-25T07:17:45.373Z,4.07
2022-07-25T07:20:14.233Z,3.95
2022-07-25T07:22:47.443Z,5.13
2022-07-25T07:25:16.831Z,4.30
2022-07-25T07:27:45.810Z,4.68
2022-07-25T07:30:16.862Z,3.47
2022-07-25T07:32:49.434Z,3.58
2022-07-25T07:35:19.099Z,4.15
2022-07-25T07:37:48.015Z,3.47
2022-07-25T07:40:17.795Z,3.40
2022-07-25T07:42:49.296Z,3.10
2022-07-25T07:45:20.104Z,3.80
2022-07-25T07:47:51.834Z,3.30
2022-07-25T07:50:22.543Z,3.72
2022-07-25T07:52:51.968Z,4.80
2022-07-25T07:55:38.055Z,3.20
2022-07-25T07:58:07.275Z,4.20
2022-07-25T08:00:39.211Z,3.30
2022-07-25T08:03:09.674Z,3.67
2022-07-25T08:05:39.580Z,3.90
2022-07-25T08:08:09.399Z,3.85
2022-07-25T08:10:39.518Z,3.47
2022-07-25T08:13:15.277Z,3.67
2022-07-25T08:15:44.991Z,2.97
2022-07-25T08:18:17.431Z,2.55
2022-07-25T08:20:47.122Z,4.45
2022-07-25T08:23:15.633Z,2.88
2022-07-25T08:25:45.075Z,2.95
2022-07-25T08:28:14.133Z,3.08
2022-07-25T08:30:43.025Z,4.05
2022-07-25T08:33:13.426Z,2.75
2022-07-25T08:35:47.768Z,2.78
2022-07-25T08:38:16.483Z,2.97
2022-07-25T08:40:45.056Z,2.67
2022-07-25T08:43:14.145Z,4.07
2022-07-25T08:45:45.937Z,3.75
2022-07-25T08:48:14.441Z,2.33
2022-07-25T08:50:45.516Z,3.15
2022-07-25T08:53:32.717Z,3.20
2022-07-25T08:56:06.680Z,3.05
2022-07-25T08:58:37.118Z,2.92
2022-07-25T09:01:05.599Z,3.38
2022-07-25T09:03:34.305Z,2.60
2022-07-25T09:06:15.424Z,2.88
2022-07-25T09:08:52.801Z,2.88
2022-07-25T09:11:28.341Z,3.10
2022-07-25T09:14:06.034Z,3.08
2022-07-25T09:16:39.009Z,3.05
2022-07-25T09:19:15.214Z,2.22
2022-07-25T09:21:46.724Z,2.30
2022-07-25T09:24:22.498Z,3.65
2022-07-25T09:26:52.914Z,4.05
2022-07-25T09:29:24.066Z,2.45
2022-07-25T09:31:53.200Z,2.60
2022-07-25T09:34:34.460Z,2.17
2022-07-25T09:37:06.467Z,1.85
2022-07-25T09:39:46.033Z,2.67
2022-07-25T09:42:21.568Z,2.70
2022-07-25T09:45:06.918Z,2.95
2022-07-25T09:47:37.340Z,2.38
2022-07-25T09:50:07.442Z,2.47
2022-07-25T09:52:38.630Z,3.50
2022-07-25T09:55:10.144Z,3.22
2022-07-25T09:57:38.792Z,2.97
2022-07-25T10:00:09.683Z,2.58
2022-07-25T10:02:48.256Z,3.33
2022-07-25T10:05:20.536Z,2.75
2022-07-25T10:07:53.872Z,2.83
2022-07-25T10:10:29.945Z,3.00
2022-07-25T10:13:06.487Z,2.70
2022-07-25T10:15:42.389Z,2.45
2022-07-25T10:18:11.187Z,2.88
2022-07-25T10:20:39.922Z,2.78
2022-07-25T10:23:24.112Z,2.85
2022-07-25T10:26:09.133Z,2.85
2022-07-25T10:28:47.394Z,3.05
2022-07-25T10:31:25.084Z,2.08
2022-07-25T10:33:58.942Z,2.88
2022-07-25T10:36:30.209Z,2.35
2022-07-25T10:39:02.094Z,2.95
2022-07-25T10:41:30.991Z,2.67
2022-07-25T10:44:03.373Z,2.50
2022-07-25T10:46:36.305Z,3.08
2022-07-25T10:49:07.387Z,2.90
2022-07-25T10:51:41.644Z,2.20
2022-07-25T10:54:16.493Z,2.28
2022-07-25T10:56:57.411Z,3.38
2022-07-25T10:59:34.398Z,2.75
2022-07-25T11:02:03.843Z,2.10
2022-07-25T11:04:32.526Z,2.55
2022-07-25T11:07:09.616Z,2.65
2022-07-25T11:09:39.812Z,3.20
2022-07-25T11:12:08.994Z,2.20
2022-07-25T11:14:41.312Z,3.15
2022-07-25T11:17:15.588Z,2.70
2022-07-25T11:19:45.189Z,3.65
2022-07-25T11:22:13.868Z,1.88
2022-07-25T11:24:45.731Z,2.70
2022-07-25T11:27:22.589Z,2.85
2022-07-25T11:29:51.374Z,2.42
2022-07-25T11:32:20.029Z,2.30
2022-07-25T11:34:51.136Z,2.60
2022-07-25T11:37:21.220Z,2.75
2022-07-25T11:39:51.508Z,2.58
2022-07-25T11:42:21.945Z,2.70
2022-07-25T11:44:52.708Z,2.83
2022-07-25T11:47:26.584Z,2.53
2022-07-25T11:49:56.809Z,3.03
2022-07-25T11:52:29.803Z,2.42
2022-07-25T11:55:02.090Z,2.28
2022-07-25T11:57:32.183Z,3.05
2022-07-25T12:00:02.749Z,2.88
2022-07-25T12:02:37.831Z,2.58
2022-07-25T12:05:08.600Z,2.00
2022-07-25T12:07:41.906Z,1.52
2022-07-25T12:10:15.576Z,1.80
2022-07-25T12:12:49.681Z,1.60
2022-07-25T12:15:20.646Z,1.50
2022-07-25T12:17:49.339Z,1.67
2022-07-25T12:20:19.807Z,1.70
2022-07-25T12:22:49.081Z,2.13
2022-07-25T12:25:18.879Z,1.52
2022-07-25T12:27:47.180Z,1.50
2022-07-25T12:30:16.453Z,1.80
2022-07-25T12:32:44.852Z,2.00
2022-07-25T12:35:14.435Z,1.88
2022-07-25T12:37:43.333Z,1.80
2022-07-25T12:40:13.626Z,1.45
2022-07-25T12:42:43.868Z,1.45
2022-07-25T12:45:14.710Z,1.70
2022-07-25T12:47:44.124Z,2.00
2022-07-25T12:50:13.466Z,1.63
2022-07-25T12:52:42.867Z,1.90
2022-07-25T12:55:13.353Z,1.95
2022-07-25T12:57:43.098Z,2.10
2022-07-25T13:00:14.417Z,1.92
2022-07-25T13:02:43.045Z,1.73
2022-07-25T13:05:11.802Z,1.60
2022-07-25T13:07:40.526Z,1.98
2022-07-25T13:10:09.598Z,2.22
2022-07-25T13:12:37.875Z,1.73
2022-07-25T13:15:08.871Z,2.03
2022-07-25T13:17:37.817Z,2.20
2022-07-25T13:20:08.052Z,1.20
2022-07-25T13:22:36.483Z,1.85
2022-07-25T13:25:05.378Z,2.53
2022-07-25T13:27:33.783Z,2.13
2022-07-25T13:30:02.362Z,1.75
2022-07-25T13:32:31.948Z,2.08
2022-07-25T13:35:00.219Z,2.00
2022-07-25T13:37:28.825Z,2.00
2022-07-25T13:39:56.989Z,2.00
2022-07-25T13:42:25.272Z,1.88
2022-07-25T13:44:53.873Z,2.20
2022-07-25T13:47:25.765Z,2.13
2022-07-25T13:49:59.671Z,1.98
2022-07-25T13:52:27.952Z,1.75
2022-07-25T13:54:56.248Z,2.22
2022-07-25T13:57:24.737Z,2.28
2022-07-25T13:59:52.878Z,2.63
2022-07-25T14:02:21.251Z,2.42
2022-07-25T14:04:49.704Z,2.63
2022-07-25T14:07:19.271Z,2.13
2022-07-25T14:09:47.475Z,2.30
2022-07-25T14:12:15.854Z,1.55
2022-07-25T14:14:44.050Z,1.70
2022-07-25T14:17:12.382Z,2.10
2022-07-25T14:19:41.051Z,1.67
2022-07-25T14:22:09.429Z,1.88
2022-07-25T14:24:39.050Z,1.60
2022-07-25T14:27:07.472Z,1.73
2022-07-25T14:29:37.903Z,1.92
2022-07-25T14:32:07.745Z,1.67
2022-07-25T14:34:37.927Z,1.50
2022-07-25T14:37:06.922Z,1.70
2022-07-25T14:39:38.448Z,2.10
2022-07-25T14:42:11.210Z,2.00
2022-07-25T14:44:40.510Z,1.80
2022-07-25T14:47:12.283Z,1.67
2022-07-25T14:49:41.639Z,1.80
2022-07-25T14:52:09.926Z,1.60
2022-07-25T14:54:39.657Z,1.65
2022-07-25T14:57:08.666Z,1.67
2022-07-25T14:59:37.646Z,1.77
2022-07-25T15:02:05.866Z,1.80
2022-07-25T15:04:34.530Z,1.50
2022-07-25T15:07:02.862Z,1.77
2022-07-25T15:09:31.190Z,2.00
2022-07-25T15:12:00.918Z,1.70
2022-07-25T15:14:29.413Z,1.80
2022-07-25T15:16:57.695Z,2.10
2022-07-25T15:19:26.684Z,1.80
2022-07-25T15:21:55.062Z,1.83
2022-07-25T15:24:28.652Z,1.60
2022-07-25T15:26:58.045Z,2.00
2022-07-25T15:29:28.651Z,2.20
2022-07-25T15:31:57.322Z,1.95
2022-07-25T15:34:25.824Z,2.13
2022-07-25T15:36:56.142Z,2.03
2022-07-25T15:39:24.507Z,2.22
2022-07-25T15:41:52.887Z,2.10
2022-07-25T15:44:21.161Z,1.73
2022-07-25T15:46:50.899Z,1.73
2022-07-25T15:49:19.406Z,1.70
2022-07-25T15:51:47.684Z,1.80
2022-07-25T15:54:15.915Z,1.92
2022-07-25T15:56:44.340Z,2.00
2022-07-25T15:59:12.502Z,1.73
2022-07-25T16:01:42.867Z,2.20
2022-07-25T16:04:12.761Z,1.70
2022-07-25T16:06:41.099Z,1.80
2022-07-25T16:09:09.833Z,1.65
2022-07-25T16:11:38.730Z,2.10
2022-07-25T16:14:07.001Z,1.45
2022-07-25T16:16:36.605Z,1.90
2022-07-25T16:19:05.758Z,1.88
2022-07-25T16:21:35.431Z,2.25
2022-07-25T16:24:03.693Z,1.90
2022-07-25T16:26:32.054Z,2.20
2022-07-25T16:29:00.482Z,1.83
2022-07-25T16:31:28.794Z,1.42
2022-07-25T16:33:57.489Z,1.95
2022-07-25T16:36:27.154Z,1.73
2022-07-25T16:38:57.002Z,1.45
2022-07-25T16:41:25.666Z,1.45
2022-07-25T16:43:53.799Z,2.38
2022-07-25T16:46:26.816Z,1.88
2022-07-25T16:48:57.042Z,1.77
2022-07-25T16:51:25.435Z,1.75
2022-07-25T16:53:55.944Z,1.70
2022-07-25T16:56:24.445Z,1.70
2022-07-25T16:58:53.872Z,2.00
2022-07-25T17:01:22.379Z,2.08
2022-07-25T17:03:50.775Z,1.80
2022-07-25T17:06:19.047Z,1.70
2022-07-25T17:08:47.786Z,1.77
2022-07-25T17:11:31.601Z,1.73
2022-07-25T17:14:00.575Z,1.70
2022-07-25T17:16:29.143Z,1.85
2022-07-25T17:18:57.467Z,1.80
2022-07-25T17:21:25.679Z,1.98
2022-07-25T17:23:54.720Z,2.15
2022-07-25T17:26:24.499Z,2.28
2022-07-25T17:28:53.659Z,1.80
2022-07-25T17:31:22.149Z,2.00
2022-07-25T17:33:50.385Z,2.25
2022-07-25T17:36:18.704Z,1.73
2022-07-25T17:38:47.431Z,2.20
2022-07-25T17:41:15.675Z,1.90
2022-07-25T17:43:45.342Z,2.00
2022-07-25T17:46:13.944Z,1.90
2022-07-25T17:48:42.719Z,2.22
2022-07-25T17:51:11.001Z,1.75
2022-07-25T17:53:39.492Z,2.13
2022-07-25T17:56:08.988Z,2.25
2022-07-25T17:58:38.112Z,2.10
2022-07-25T18:01:10.544Z,2.35
2022-07-25T18:03:39.115Z,2.20
2022-07-25T18:06:07.894Z,2.30
2022-07-25T18:08:36.368Z,2.50
2022-07-25T18:11:04.717Z,2.78
2022-07-25T18:13:34.349Z,2.33
2022-07-25T18:16:02.704Z,2.00
2022-07-25T18:18:33.101Z,2.13
2022-07-25T18:21:02.153Z,1.90
2022-07-25T18:23:30.678Z,2.78
2022-07-25T18:25:58.895Z,3.05
2022-07-25T18:28:27.639Z,2.33
2022-07-25T18:30:55.955Z,2.13
2022-07-25T18:33:24.502Z,2.60
2022-07-25T18:35:54.557Z,3.17
2022-07-25T18:38:22.873Z,2.38
2022-07-25T18:41:01.748Z,2.97
2022-07-25T18:43:40.014Z,2.75
2022-07-25T18:46:09.990Z,3.20
2022-07-25T18:48:38.300Z,3.20
2022-07-25T18:51:08.101Z,2.35
2022-07-25T18:53:36.909Z,2.40
2022-07-25T18:56:06.639Z,2.90
2022-07-25T18:58:35.700Z,3.15
2022-07-25T19:01:04.038Z,2.83
2022-07-25T19:03:34.839Z,3.22
2022-07-25T19:06:03.891Z,2.75
2022-07-25T19:08:33.854Z,3.25
2022-07-25T19:11:02.470Z,2.55
2022-07-25T19:14:00.872Z,2.72
2022-07-25T19:16:20.618Z,3.15
2022-07-25T19:18:49.581Z,3.00
2022-07-25T19:21:17.957Z,3.50
2022-07-25T19:23:50.836Z,3.45
2022-07-25T19:26:20.200Z,2.92
2022-07-25T19:28:48.533Z,2.95
2022-07-25T19:31:17.317Z,3.22
2022-07-25T19:33:46.640Z,3.65
2022-07-25T19:36:15.056Z,2.70
2022-07-25T19:38:43.374Z,3.58
2022-07-25T19:41:14.469Z,2.78
2022-07-25T19:43:42.801Z,2.60
2022-07-25T19:46:11.112Z,3.40
2022-07-25T19:48:39.691Z,2.92
2022-07-25T19:51:08.267Z,2.97
2022-07-25T19:53:36.488Z,2.53
2022-07-25T19:56:06.699Z,2.88
2022-07-25T19:58:38.882Z,2.60
2022-07-25T20:01:09.054Z,3.08
2022-07-25T20:03:37.348Z,2.90
2022-07-25T20:06:08.338Z,3.28
2022-07-25T20:08:39.346Z,3.38
2022-07-25T20:11:08.353Z,3.55
2022-07-25T20:13:38.002Z,3.30
2022-07-25T20:16:06.889Z,3.47
2022-07-25T20:18:35.202Z,3.70
2022-07-25T20:21:03.571Z,2.80
2022-07-25T20:23:32.387Z,2.97
2022-07-25T20:26:02.324Z,2.67
2022-07-25T20:28:30.801Z,3.47
2022-07-25T20:31:01.808Z,2.42
2022-07-25T20:33:30.676Z,2.63
2022-07-25T20:35:59.357Z,3.42
2022-07-25T20:38:28.833Z,3.38
2022-07-25T20:40:57.838Z,3.10
2022-07-25T20:43:26.509Z,3.40
2022-07-25T20:45:55.840Z,3.17
2022-07-25T20:48:25.830Z,3.78
2022-07-25T20:50:54.215Z,3.25
2022-07-25T20:53:22.794Z,3.08
2022-07-25T20:55:51.141Z,3.80
2022-07-25T20:58:19.645Z,2.83
2022-07-25T21:00:48.359Z,3.53
2022-07-25T21:03:16.959Z,3.38
2022-07-25T21:05:46.607Z,3.33
2022-07-25T21:08:15.334Z,3.60
2022-07-25T21:10:43.824Z,4.10
2022-07-25T21:13:12.264Z,3.75
2022-07-25T21:15:44.391Z,3.45
2022-07-25T21:18:12.621Z,3.35
2022-07-25T21:20:40.933Z,3.70
2022-07-25T21:23:11.479Z,3.58
2022-07-25T21:25:39.787Z,3.80
2022-07-25T21:28:08.031Z,3.72
2022-07-25T21:30:37.471Z,3.35
2022-07-25T21:33:14.279Z,3.92
2022-07-25T21:35:49.157Z,3.15
2022-07-25T21:38:27.321Z,3.63
2022-07-25T21:40:57.632Z,3.97
2022-07-25T21:43:26.285Z,3.97
2022-07-25T21:45:54.534Z,3.50
2022-07-25T21:48:44.048Z,3.58
2022-07-25T21:51:18.750Z,4.22
2022-07-25T21:53:50.562Z,3.85
2022-07-25T21:56:19.429Z,3.22
2022-07-25T21:58:47.853Z,3.97
2022-07-25T22:01:16.695Z,3.20
2022-07-25T22:03:44.956Z,3.88
2022-07-25T22:06:13.380Z,4.22
2022-07-25T22:08:41.741Z,3.50
2022-07-25T22:11:20.646Z,4.20
2022-07-25T22:13:59.829Z,4.50
2022-07-25T22:16:28.324Z,3.38
2022-07-25T22:18:57.212Z,3.80
2022-07-25T22:21:26.132Z,2.88
2022-07-25T22:23:54.337Z,3.47
2022-07-25T22:26:23.917Z,3.90
2022-07-25T22:28:52.426Z,3.00
2022-07-25T22:31:20.712Z,3.88
2022-07-25T22:33:49.004Z,4.75
2022-07-25T22:36:17.392Z,3.95
2022-07-25T22:38:45.638Z,4.07
2022-07-25T22:41:14.380Z,4.00
2022-07-25T22:43:57.868Z,3.65
2022-07-25T22:46:29.762Z,3.30
2022-07-25T22:48:59.087Z,3.60
2022-07-25T22:51:27.735Z,4.15
2022-07-25T22:53:56.116Z,3.67
2022-07-25T22:56:25.308Z,3.75
2022-07-25T22:58:55.743Z,3.95
2022-07-25T23:01:24.550Z,3.03
2022-07-25T23:03:53.711Z,4.25
2022-07-25T23:06:22.675Z,3.75
2022-07-25T23:08:51.211Z,4.30
2022-07-25T23:11:19.936Z,3.60
2022-07-25T23:13:48.137Z,3.92
2022-07-25T23:16:17.730Z,3.60
2022-07-25T23:18:46.350Z,3.40
2022-07-25T23:21:14.666Z,3.50
2022-07-25T23:23:42.987Z,3.10
2022-07-25T23:26:11.633Z,3.47
2022-07-25T23:28:39.911Z,3.15
2022-07-25T23:31:08.238Z,3.30
2022-07-25T23:33:38.190Z,4.13
2022-07-25T23:36:07.107Z,3.75
2022-07-25T23:38:35.308Z,3.70
2022-07-25T23:41:03.777Z,3.58
2022-07-25T23:43:55.646Z,4.18
2022-07-25T23:46:27.530Z,3.90
2022-07-25T23:48:58.322Z,3.72
2022-07-25T23:51:27.083Z,3.20
2022-07-25T23:53:55.356Z,3.97
2022-07-25T23:56:23.617Z,3.63
2022-07-25T23:58:52.525Z,4.25
